Terminal Aerodrome Forecast
Issued by NWS

Current Version | Previous Version | Text Only | Print | Product List | Glossary On
Versions: 1 2 3 4 5 6 7 8 9 10 11 12 13 14 15 16 17 18 19 20 21 22 23 24 25 26
211
FTUS41 KPHI 251120
TAFPNE
TAF
KPNE 251120Z 2512/2612 09007KT 6SM -RA BR OVC007
      TEMPO 2512/2516 3SM RA BR OVC005
     FM251800 26004KT P6SM VCSH OVC006
     FM251900 27004KT P6SM OVC012
     FM260000 31005KT P6SM BKN035
     FM260800 34005KT P6SM BKN250=

USA.gov is the U.S. government's official web portal to all federal, state and local government web resources and services.